createdAt,value
2018-01-06T00:00:33.237Z,0.00
2018-01-06T00:01:33.224Z,0.00
2018-01-06T00:02:33.217Z,0.00
2018-01-06T00:03:33.269Z,0.00
2018-01-06T00:04:33.222Z,0.00
2018-01-06T00:05:33.184Z,0.00
2018-01-06T00:06:33.167Z,0.00
2018-01-06T00:07:33.160Z,0.00
2018-01-06T00:08:33.145Z,0.00
2018-01-06T00:09:33.138Z,0.00
2018-01-06T00:10:33.133Z,0.00
2018-01-06T00:11:33.115Z,0.00
2018-01-06T00:12:33.106Z,0.00
2018-01-06T00:13:33.109Z,0.00
2018-01-06T00:14:33.081Z,0.00
2018-01-06T00:15:33.074Z,0.00
2018-01-06T00:16:33.069Z,0.00
2018-01-06T00:17:33.048Z,0.00
2018-01-06T00:18:33.044Z,0.00
2018-01-06T00:19:33.039Z,0.00
2018-01-06T00:20:33.016Z,0.00
2018-01-06T00:21:33.005Z,0.00
2018-01-06T00:22:32.997Z,0.00
2018-01-06T00:23:32.981Z,0.00
2018-01-06T00:24:32.968Z,0.00
2018-01-06T00:25:32.980Z,0.00
2018-01-06T00:26:32.968Z,0.00
2018-01-06T00:27:32.937Z,0.00
2018-01-06T00:28:32.930Z,0.00
2018-01-06T00:29:32.923Z,0.00
2018-01-06T00:30:32.905Z,0.00
2018-01-06T00:31:32.894Z,0.00
2018-01-06T00:32:32.880Z,0.00
2018-01-06T00:33:32.873Z,0.00
2018-01-06T00:34:32.861Z,0.00
2018-01-06T00:35:32.872Z,0.00
2018-01-06T00:36:32.849Z,0.00
2018-01-06T00:37:32.833Z,0.00
2018-01-06T00:38:32.815Z,0.00
2018-01-06T00:39:32.807Z,0.00
2018-01-06T00:40:32.801Z,0.00
2018-01-06T00:41:32.804Z,0.00
2018-01-06T00:42:32.769Z,0.00
2018-01-06T00:43:32.759Z,0.00
2018-01-06T00:44:32.746Z,0.00
2018-01-06T00:45:32.734Z,0.00
2018-01-06T00:46:32.725Z,0.00
2018-01-06T00:47:32.715Z,0.00
2018-01-06T00:48:32.699Z,0.00
2018-01-06T00:49:32.695Z,0.00
2018-01-06T00:50:32.680Z,0.00
2018-01-06T00:51:32.667Z,0.00
2018-01-06T00:52:32.659Z,0.00
2018-01-06T00:53:32.644Z,0.00
2018-01-06T00:54:32.634Z,0.00
2018-01-06T00:55:32.623Z,0.00
2018-01-06T00:56:32.613Z,0.00
2018-01-06T00:57:32.605Z,0.00
2018-01-06T00:58:32.590Z,0.00
2018-01-06T00:59:32.578Z,0.00
2018-01-06T01:00:32.588Z,0.00
2018-01-06T01:01:32.557Z,0.00
2018-01-06T01:02:32.549Z,0.00
2018-01-06T01:03:32.533Z,0.00
2018-01-06T01:04:32.519Z,0.00
2018-01-06T01:05:32.516Z,0.00
2018-01-06T01:06:32.502Z,0.00
2018-01-06T01:07:32.487Z,0.00
2018-01-06T01:08:32.477Z,0.00
2018-01-06T01:09:32.468Z,0.00
2018-01-06T01:10:32.452Z,0.00
2018-01-06T01:11:32.449Z,0.00
2018-01-06T01:12:32.438Z,0.00
2018-01-06T01:13:32.421Z,0.00
2018-01-06T01:14:32.415Z,0.00
2018-01-06T01:15:32.398Z,0.00
2018-01-06T01:16:32.385Z,0.00
2018-01-06T01:17:32.372Z,0.00
2018-01-06T01:18:32.362Z,0.00
2018-01-06T01:19:32.357Z,0.00
2018-01-06T01:21:08.317Z,0.00
2018-01-06T01:21:34.749Z,0.00
2018-01-06T01:22:32.319Z,0.00
2018-01-06T01:23:32.308Z,0.00
2018-01-06T01:24:32.296Z,0.00
2018-01-06T01:25:32.280Z,0.00
2018-01-06T01:26:32.278Z,0.00
2018-01-06T01:27:32.266Z,0.00
2018-01-06T01:28:32.253Z,0.00
2018-01-06T01:29:32.240Z,0.00
2018-01-06T01:30:32.231Z,0.00
2018-01-06T01:31:32.213Z,0.00
2018-01-06T01:32:32.209Z,0.00
2018-01-06T01:33:32.190Z,0.00
2018-01-06T01:34:32.189Z,0.00
2018-01-06T01:35:32.183Z,0.00
2018-01-06T01:36:32.162Z,0.00
2018-01-06T01:37:32.148Z,0.00
2018-01-06T01:38:32.138Z,0.00
2018-01-06T01:39:32.129Z,0.00
2018-01-06T01:40:32.129Z,0.00
2018-01-06T01:41:32.102Z,0.00
2018-01-06T01:42:32.107Z,0.00
2018-01-06T01:43:32.078Z,0.00
2018-01-06T01:44:32.066Z,0.00
2018-01-06T01:45:32.057Z,0.00
2018-01-06T01:46:32.044Z,0.00
2018-01-06T01:47:32.034Z,0.00
2018-01-06T01:48:32.021Z,0.00
2018-01-06T01:49:32.011Z,0.00
2018-01-06T01:50:32.000Z,0.00
2018-01-06T01:51:31.983Z,0.00
2018-01-06T01:52:31.988Z,0.00
2018-01-06T01:53:31.969Z,0.00
2018-01-06T01:54:31.974Z,0.00
2018-01-06T01:55:31.940Z,0.00
2018-01-06T01:56:31.931Z,0.00
2018-01-06T01:57:31.916Z,0.00
2018-01-06T01:58:31.909Z,0.00
2018-01-06T01:59:31.896Z,0.00
2018-01-06T02:00:31.891Z,0.00
2018-01-06T02:01:31.873Z,0.00
2018-01-06T02:02:31.864Z,0.00
2018-01-06T02:03:31.850Z,0.00
2018-01-06T02:04:31.844Z,0.00
2018-01-06T02:05:31.828Z,0.00
2018-01-06T02:06:31.818Z,0.00
2018-01-06T02:07:31.809Z,0.00
2018-01-06T02:08:31.796Z,0.00
2018-01-06T02:09:31.795Z,0.00
2018-01-06T02:10:31.791Z,0.00
2018-01-06T02:11:31.761Z,0.00
2018-01-06T02:12:31.755Z,0.00
2018-01-06T02:13:31.746Z,0.00
2018-01-06T02:14:31.739Z,0.00
2018-01-06T02:15:31.720Z,0.00
2018-01-06T02:16:31.716Z,0.00
2018-01-06T02:17:31.693Z,0.00
2018-01-06T02:18:31.685Z,0.00
2018-01-06T02:19:31.668Z,0.00
2018-01-06T02:20:31.668Z,0.00
2018-01-06T02:21:31.656Z,0.00
2018-01-06T02:22:31.637Z,0.00
2018-01-06T02:23:31.624Z,0.00
2018-01-06T02:24:31.610Z,0.00
2018-01-06T02:25:31.601Z,0.00
2018-01-06T02:26:31.593Z,0.00
2018-01-06T02:27:31.579Z,0.00
2018-01-06T02:28:31.565Z,0.00
2018-01-06T02:29:31.553Z,0.00
2018-01-06T02:30:31.543Z,0.00
2018-01-06T02:31:31.527Z,0.00
2018-01-06T02:32:31.536Z,0.00
2018-01-06T02:33:31.509Z,0.00
2018-01-06T02:34:31.500Z,0.00
2018-01-06T02:35:31.484Z,0.00
2018-01-06T02:36:31.476Z,0.00
2018-01-06T02:37:31.461Z,0.00
2018-01-06T02:38:31.484Z,0.00
2018-01-06T02:39:31.440Z,0.00
2018-01-06T02:40:31.429Z,0.00
2018-01-06T02:41:31.414Z,0.00
2018-01-06T02:42:31.404Z,0.00
2018-01-06T02:43:31.416Z,0.00
2018-01-06T02:44:31.379Z,0.00
2018-01-06T02:45:31.372Z,0.00
2018-01-06T02:46:31.359Z,0.00
2018-01-06T02:47:31.352Z,0.00
2018-01-06T02:48:31.343Z,0.00
2018-01-06T02:49:31.333Z,0.00
2018-01-06T02:50:31.338Z,0.00
2018-01-06T02:51:31.301Z,0.00
2018-01-06T02:52:31.290Z,0.00
2018-01-06T02:53:31.282Z,0.00
2018-01-06T02:54:31.266Z,0.00
2018-01-06T02:55:31.257Z,0.00
2018-01-06T02:56:31.246Z,0.00
2018-01-06T02:57:31.236Z,0.00
2018-01-06T02:58:31.219Z,0.00
2018-01-06T02:59:31.210Z,0.00
2018-01-06T03:00:31.198Z,0.00
2018-01-06T03:01:31.187Z,0.00
2018-01-06T03:02:31.177Z,0.00
2018-01-06T03:03:31.160Z,0.00
2018-01-06T03:04:31.151Z,0.00
2018-01-06T03:05:31.140Z,0.00
2018-01-06T03:06:31.131Z,0.00
2018-01-06T03:07:31.117Z,0.00
2018-01-06T03:08:31.110Z,0.00
2018-01-06T03:09:31.093Z,0.00
2018-01-06T03:10:31.082Z,0.00
2018-01-06T03:11:31.070Z,0.00
2018-01-06T03:12:31.063Z,0.00
2018-01-06T03:13:31.050Z,0.00
2018-01-06T03:14:31.033Z,0.00
2018-01-06T03:15:31.026Z,0.00
2018-01-06T03:16:31.016Z,0.00
2018-01-06T03:17:31.004Z,0.00
2018-01-06T03:18:30.995Z,0.00
2018-01-06T03:19:30.981Z,0.00
2018-01-06T03:20:30.966Z,0.00
2018-01-06T03:21:30.970Z,0.00
2018-01-06T03:22:30.947Z,0.00
2018-01-06T03:23:30.934Z,0.00
2018-01-06T03:24:30.922Z,0.00
2018-01-06T03:25:30.914Z,0.00
2018-01-06T03:26:30.899Z,0.00
2018-01-06T03:27:30.905Z,0.00
2018-01-06T03:28:30.876Z,0.00
2018-01-06T03:29:30.867Z,0.00
2018-01-06T03:30:30.855Z,0.00
2018-01-06T03:31:30.843Z,0.00
2018-01-06T03:32:30.828Z,0.00
2018-01-06T03:33:30.826Z,0.00
2018-01-06T03:34:30.807Z,0.00
2018-01-06T03:35:30.793Z,0.00
2018-01-06T03:36:30.783Z,0.00
2018-01-06T03:37:30.769Z,0.00
2018-01-06T03:38:30.763Z,0.00
2018-01-06T03:39:30.754Z,0.00
2018-01-06T03:40:30.747Z,0.00
2018-01-06T03:41:30.723Z,0.00
2018-01-06T03:42:30.714Z,0.00
2018-01-06T03:43:30.701Z,0.00
2018-01-06T03:44:30.691Z,0.00
2018-01-06T03:45:30.679Z,0.00
2018-01-06T03:46:30.669Z,0.00
2018-01-06T03:47:30.654Z,0.00
2018-01-06T03:48:30.645Z,0.00
2018-01-06T03:49:30.633Z,0.00
2018-01-06T03:50:30.622Z,0.00
2018-01-06T03:51:30.611Z,0.00
2018-01-06T03:52:30.601Z,0.00
2018-01-06T03:53:30.583Z,0.00
2018-01-06T03:54:30.571Z,0.00
2018-01-06T03:55:30.561Z,0.00
2018-01-06T03:56:30.551Z,0.00
2018-01-06T03:57:30.543Z,0.00
2018-01-06T03:58:30.528Z,0.00
2018-01-06T03:59:30.516Z,0.00
2018-01-06T04:00:30.507Z,0.00
2018-01-06T04:01:30.491Z,0.00
2018-01-06T04:02:30.484Z,0.00
2018-01-06T04:03:30.471Z,0.00
2018-01-06T04:04:30.465Z,0.00
2018-01-06T04:05:30.452Z,0.00
2018-01-06T04:06:30.438Z,0.00
2018-01-06T04:07:30.426Z,0.00
2018-01-06T04:08:30.413Z,0.00
2018-01-06T04:09:30.402Z,0.00
2018-01-06T04:10:30.390Z,0.00
2018-01-06T04:11:30.379Z,0.00
2018-01-06T04:12:30.365Z,0.00
2018-01-06T04:13:30.354Z,0.00
2018-01-06T04:14:30.349Z,0.00
2018-01-06T04:15:30.336Z,0.00
2018-01-06T04:16:30.319Z,0.00
2018-01-06T04:17:30.308Z,0.00
2018-01-06T04:18:30.304Z,0.00
2018-01-06T04:19:30.281Z,0.00
2018-01-06T04:20:30.286Z,0.00
2018-01-06T04:21:30.284Z,0.00
2018-01-06T04:22:30.249Z,0.00
2018-01-06T04:23:30.258Z,0.00
2018-01-06T04:24:30.250Z,0.00
2018-01-06T04:25:30.228Z,0.00
2018-01-06T04:26:30.206Z,0.00
2018-01-06T04:27:30.188Z,0.00
2018-01-06T04:28:30.184Z,0.00
2018-01-06T04:29:30.168Z,0.00
2018-01-06T04:30:30.163Z,0.00
2018-01-06T04:31:30.164Z,0.00
2018-01-06T04:32:30.132Z,0.00
2018-01-06T04:33:30.123Z,0.00
2018-01-06T04:34:30.113Z,0.00
2018-01-06T04:35:30.097Z,0.00
2018-01-06T04:36:30.098Z,0.00
2018-01-06T04:37:30.082Z,0.00
2018-01-06T04:38:30.065Z,0.00
2018-01-06T04:39:30.059Z,0.00
2018-01-06T04:40:30.041Z,0.00
2018-01-06T04:41:30.031Z,0.00
2018-01-06T04:42:30.018Z,0.00
2018-01-06T04:43:30.005Z,0.00
2018-01-06T04:44:29.994Z,0.00
2018-01-06T04:45:29.982Z,0.00
2018-01-06T04:46:29.971Z,0.00
2018-01-06T04:47:29.957Z,0.00
2018-01-06T04:48:29.947Z,0.00
2018-01-06T04:49:29.939Z,0.00
2018-01-06T04:50:29.928Z,0.00
2018-01-06T04:51:29.910Z,0.00
2018-01-06T04:52:29.905Z,0.00
2018-01-06T04:53:29.891Z,0.00
2018-01-06T04:54:29.875Z,0.00
2018-01-06T04:55:29.865Z,0.00
2018-01-06T04:56:29.852Z,0.00
2018-01-06T04:57:29.848Z,0.00
2018-01-06T04:58:29.831Z,0.00
2018-01-06T04:59:29.819Z,0.00
2018-01-06T05:00:29.811Z,0.00
2018-01-06T05:01:29.794Z,0.00
2018-01-06T05:02:29.785Z,0.00
2018-01-06T05:03:29.774Z,0.00
2018-01-06T05:04:29.765Z,0.00
2018-01-06T05:05:29.749Z,0.00
2018-01-06T05:06:29.738Z,0.00
2018-01-06T05:07:29.727Z,0.00
2018-01-06T05:08:29.714Z,0.00
2018-01-06T05:09:29.702Z,0.00
2018-01-06T05:10:29.694Z,0.00
2018-01-06T05:11:29.682Z,0.00
2018-01-06T05:12:29.668Z,0.00
2018-01-06T05:13:29.658Z,0.00
2018-01-06T05:14:29.651Z,0.00
2018-01-06T05:15:29.634Z,0.00
2018-01-06T05:16:29.622Z,0.00
2018-01-06T05:17:29.614Z,0.00
2018-01-06T05:18:29.601Z,0.00
2018-01-06T05:19:29.589Z,0.00
2018-01-06T05:20:29.574Z,0.00
2018-01-06T05:21:29.567Z,0.00
2018-01-06T05:22:29.555Z,0.00
2018-01-06T05:23:29.540Z,0.00
2018-01-06T05:24:29.532Z,0.00
2018-01-06T05:25:29.528Z,0.00
2018-01-06T05:26:29.508Z,0.00
2018-01-06T05:27:29.496Z,0.00
2018-01-06T05:28:29.485Z,0.00
2018-01-06T05:29:29.470Z,0.00
2018-01-06T05:30:29.464Z,0.00
2018-01-06T05:31:29.456Z,0.00
2018-01-06T05:32:29.441Z,0.00
2018-01-06T05:33:29.440Z,0.00
2018-01-06T05:34:29.425Z,0.00
2018-01-06T05:35:29.407Z,0.00
2018-01-06T05:36:29.391Z,0.00
2018-01-06T05:37:29.382Z,0.00
2018-01-06T05:38:29.376Z,0.00
2018-01-06T05:39:29.362Z,0.00
2018-01-06T05:40:29.360Z,0.00
2018-01-06T05:41:29.339Z,0.00
2018-01-06T05:42:29.331Z,0.00
2018-01-06T05:43:29.312Z,0.00
2018-01-06T05:44:29.306Z,0.00
2018-01-06T05:45:29.294Z,0.00
2018-01-06T05:46:29.281Z,0.00
2018-01-06T05:47:29.272Z,0.00
2018-01-06T05:48:29.286Z,0.00
2018-01-06T05:49:29.246Z,0.00
2018-01-06T05:50:29.239Z,0.00
2018-01-06T05:51:29.228Z,0.00
2018-01-06T05:52:29.213Z,0.00
2018-01-06T05:53:29.203Z,0.00
2018-01-06T05:54:29.195Z,0.00
2018-01-06T05:55:29.181Z,0.00
2018-01-06T05:56:29.168Z,0.00
2018-01-06T05:57:29.161Z,0.00
2018-01-06T05:58:29.148Z,0.00
2018-01-06T05:59:29.136Z,0.00
2018-01-06T06:00:29.129Z,0.00
2018-01-06T06:01:29.121Z,0.00
2018-01-06T06:02:29.104Z,0.00
2018-01-06T06:03:29.090Z,0.00
2018-01-06T06:04:29.078Z,0.00
2018-01-06T06:05:29.076Z,0.00
2018-01-06T06:06:29.061Z,0.00
2018-01-06T06:07:29.047Z,0.00
2018-01-06T06:08:29.036Z,0.00
2018-01-06T06:09:29.022Z,0.00
2018-01-06T06:10:29.017Z,0.00
2018-01-06T06:11:29.005Z,0.00
2018-01-06T06:12:28.992Z,0.00
2018-01-06T06:13:28.978Z,0.00
2018-01-06T06:14:28.975Z,0.00
2018-01-06T06:15:28.958Z,0.00
2018-01-06T06:16:28.948Z,0.00
2018-01-06T06:17:28.946Z,0.00
2018-01-06T06:18:28.926Z,0.00
2018-01-06T06:19:28.918Z,0.00
2018-01-06T06:20:28.904Z,0.00
2018-01-06T06:21:28.892Z,0.00
2018-01-06T06:22:28.883Z,0.00
2018-01-06T06:23:28.869Z,0.00
2018-01-06T06:24:28.854Z,0.00
2018-01-06T06:25:28.848Z,0.00
2018-01-06T06:26:28.839Z,0.00
2018-01-06T06:27:28.826Z,0.00
2018-01-06T06:28:28.818Z,0.00
2018-01-06T06:29:28.801Z,0.00
2018-01-06T06:30:28.794Z,0.00
2018-01-06T06:31:28.780Z,0.00
2018-01-06T06:32:28.774Z,0.00
2018-01-06T06:33:28.766Z,0.00
2018-01-06T06:34:28.746Z,0.00
2018-01-06T06:35:28.740Z,0.00
2018-01-06T06:36:28.721Z,0.00
2018-01-06T06:37:28.717Z,0.00
2018-01-06T06:38:28.701Z,0.00
2018-01-06T06:39:28.702Z,0.00
2018-01-06T06:40:28.684Z,0.00
2018-01-06T06:41:28.677Z,0.00
2018-01-06T06:42:28.660Z,0.00
2018-01-06T06:43:28.652Z,0.00
2018-01-06T06:44:28.638Z,0.00
2018-01-06T06:45:28.625Z,0.00
2018-01-06T06:46:28.618Z,0.00
2018-01-06T06:47:28.609Z,0.00
2018-01-06T06:48:28.595Z,0.00
2018-01-06T06:49:28.585Z,0.00
2018-01-06T06:50:28.573Z,0.00
2018-01-06T06:51:28.558Z,0.00
2018-01-06T06:52:28.548Z,0.00
2018-01-06T06:53:28.541Z,0.00
2018-01-06T06:54:28.531Z,0.00
2018-01-06T06:55:28.520Z,0.00
2018-01-06T06:56:28.506Z,0.00
2018-01-06T06:57:28.498Z,0.00
2018-01-06T06:58:28.487Z,0.00
2018-01-06T06:59:28.477Z,0.00
2018-01-06T07:00:28.462Z,0.00
2018-01-06T07:01:28.453Z,4.00
2018-01-06T07:02:28.444Z,4.00
2018-01-06T07:03:28.432Z,0.00
2018-01-06T07:04:28.435Z,4.00
2018-01-06T07:05:28.416Z,4.00
2018-01-06T07:06:28.400Z,4.00
2018-01-06T07:07:28.389Z,4.00
2018-01-06T07:08:28.378Z,4.00
2018-01-06T07:09:28.364Z,8.00
2018-01-06T07:10:28.356Z,4.00
2018-01-06T07:11:28.382Z,8.00
2018-01-06T07:12:28.336Z,8.00
2018-01-06T07:13:28.324Z,12.00
2018-01-06T07:14:28.311Z,12.00
2018-01-06T07:15:28.305Z,12.00
2018-01-06T07:16:28.291Z,16.00
2018-01-06T07:17:28.282Z,20.00
2018-01-06T07:18:28.282Z,24.00
2018-01-06T07:19:28.292Z,24.00
2018-01-06T07:20:28.247Z,28.00
2018-01-06T07:21:28.233Z,32.00
2018-01-06T07:22:28.263Z,32.00
2018-01-06T07:23:28.213Z,36.00
2018-01-06T07:24:28.202Z,40.00
2018-01-06T07:25:28.219Z,40.00
2018-01-06T07:26:28.179Z,44.00
2018-01-06T07:27:28.169Z,48.00
2018-01-06T07:28:28.166Z,48.00
2018-01-06T07:29:28.150Z,56.00
2018-01-06T07:30:28.137Z,64.00
2018-01-06T07:31:28.131Z,72.00
2018-01-06T07:32:28.117Z,80.00
2018-01-06T07:33:28.101Z,84.00
2018-01-06T07:34:28.097Z,92.00
2018-01-06T07:35:28.083Z,100.00
2018-01-06T07:36:28.081Z,104.00
2018-01-06T07:37:28.057Z,108.00
2018-01-06T07:38:28.052Z,116.00
2018-01-06T07:39:28.041Z,120.00
2018-01-06T07:40:28.052Z,128.00
2018-01-06T07:41:28.020Z,136.00
2018-01-06T07:42:28.006Z,140.00
2018-01-06T07:43:27.997Z,152.00
2018-01-06T07:44:27.989Z,160.00
2018-01-06T07:45:27.980Z,176.00
2018-01-06T07:46:27.964Z,196.00
2018-01-06T07:47:27.954Z,220.00
2018-01-06T07:48:27.939Z,236.00
2018-01-06T07:49:27.930Z,248.00
2018-01-06T07:50:27.935Z,256.00
2018-01-06T07:51:27.915Z,280.00
2018-01-06T07:52:27.901Z,304.00
2018-01-06T07:53:27.912Z,328.00
2018-01-06T07:54:27.878Z,352.00
2018-01-06T07:55:27.869Z,380.00
2018-01-06T07:56:27.854Z,416.00
2018-01-06T07:57:27.849Z,468.00
2018-01-06T07:58:27.836Z,516.00
2018-01-06T07:59:27.822Z,556.00
2018-01-06T08:00:27.818Z,592.00
2018-01-06T08:01:27.812Z,656.00
2018-01-06T08:02:27.793Z,732.00
2018-01-06T08:03:27.786Z,780.00
2018-01-06T08:04:27.771Z,808.00
2018-01-06T08:05:27.774Z,784.00
2018-01-06T08:06:27.752Z,792.00
2018-01-06T08:07:27.774Z,812.00
2018-01-06T08:08:27.730Z,844.00
2018-01-06T08:09:27.719Z,872.00
2018-01-06T08:10:27.706Z,904.00
2018-01-06T08:11:27.706Z,944.00
2018-01-06T08:12:27.683Z,964.00
2018-01-06T08:13:27.677Z,952.00
2018-01-06T08:14:27.662Z,976.00
2018-01-06T08:15:27.651Z,1020.00
2018-01-06T08:16:27.640Z,1056.00
2018-01-06T08:17:27.629Z,1108.00
2018-01-06T08:18:27.617Z,1212.00
2018-01-06T08:19:27.608Z,1316.00
2018-01-06T08:20:27.602Z,1392.00
2018-01-06T08:21:27.585Z,1432.00
2018-01-06T08:22:27.578Z,1444.00
2018-01-06T08:23:27.566Z,1472.00
2018-01-06T08:24:27.559Z,1484.00
2018-01-06T08:25:27.554Z,1528.00
2018-01-06T08:26:27.533Z,1616.00
2018-01-06T08:27:27.525Z,1692.00
2018-01-06T08:28:27.511Z,1756.00
2018-01-06T08:29:27.502Z,1808.00
2018-01-06T08:30:27.491Z,1836.00
2018-01-06T08:31:27.481Z,1836.00
2018-01-06T08:32:27.469Z,1808.00
2018-01-06T08:33:27.458Z,1756.00
2018-01-06T08:34:27.448Z,1740.00
2018-01-06T08:35:27.435Z,1760.00
2018-01-06T08:36:27.427Z,1832.00
2018-01-06T08:37:27.415Z,1940.00
2018-01-06T08:38:27.403Z,1988.00
2018-01-06T08:39:27.393Z,2024.00
2018-01-06T08:40:27.382Z,2000.00
2018-01-06T08:41:27.374Z,1948.00
2018-01-06T08:42:27.361Z,1940.00
2018-01-06T08:43:27.354Z,1984.00
2018-01-06T08:44:27.335Z,2020.00
2018-01-06T08:45:27.331Z,2068.00
2018-01-06T08:46:27.379Z,2120.00
2018-01-06T08:47:27.315Z,2152.00
2018-01-06T08:48:27.296Z,2160.00
2018-01-06T08:49:27.286Z,2124.00
2018-01-06T08:50:27.276Z,2044.00
2018-01-06T08:51:27.267Z,2000.00
2018-01-06T08:52:27.250Z,1996.00
2018-01-06T08:53:27.249Z,2040.00
2018-01-06T08:54:27.249Z,2124.00
2018-01-06T08:55:27.236Z,2196.00
2018-01-06T08:56:27.216Z,2284.00
2018-01-06T08:57:27.200Z,2332.00
2018-01-06T08:58:27.185Z,2380.00
2018-01-06T08:59:27.179Z,2412.00
2018-01-06T09:00:27.164Z,2480.00
2018-01-06T09:01:27.158Z,2632.00
2018-01-06T09:02:27.151Z,2760.00
2018-01-06T09:03:27.133Z,2808.00
2018-01-06T09:04:27.123Z,2820.00
2018-01-06T09:05:27.114Z,2900.00
2018-01-06T09:06:27.101Z,3060.00
2018-01-06T09:07:27.088Z,3248.00
2018-01-06T09:08:27.081Z,3444.00
2018-01-06T09:09:27.069Z,3660.00
2018-01-06T09:10:27.061Z,3904.00
2018-01-06T09:11:27.045Z,4028.00
2018-01-06T09:12:27.047Z,4136.00
2018-01-06T09:13:27.025Z,4368.00
2018-01-06T09:14:27.018Z,4560.00
2018-01-06T09:15:27.008Z,4320.00
2018-01-06T09:16:26.998Z,4148.00
2018-01-06T09:17:26.988Z,4524.00
2018-01-06T09:18:26.981Z,4516.00
2018-01-06T09:19:26.963Z,4508.00
2018-01-06T09:20:26.955Z,4468.00
2018-01-06T09:21:26.950Z,4248.00
2018-01-06T09:22:26.933Z,4224.00
2018-01-06T09:23:26.924Z,4228.00
2018-01-06T09:24:26.911Z,4148.00
2018-01-06T09:25:26.911Z,4176.00
2018-01-06T09:26:26.886Z,4224.00
2018-01-06T09:27:26.882Z,4296.00
2018-01-06T09:28:26.874Z,4572.00
2018-01-06T09:29:26.871Z,5032.00
2018-01-06T09:30:26.853Z,5308.00
2018-01-06T09:31:26.836Z,5356.00
2018-01-06T09:32:26.836Z,5404.00
2018-01-06T09:33:26.823Z,5228.00
2018-01-06T09:34:26.807Z,5400.00
2018-01-06T09:35:26.804Z,5552.00
2018-01-06T09:36:26.794Z,5704.00
2018-01-06T09:37:26.776Z,5664.00
2018-01-06T09:38:26.771Z,5348.00
2018-01-06T09:39:26.762Z,5752.00
2018-01-06T09:40:26.749Z,6116.00
2018-01-06T09:41:26.737Z,5740.00
2018-01-06T09:42:26.734Z,6424.00
2018-01-06T09:43:26.742Z,6136.00
2018-01-06T09:44:26.709Z,6604.00
2018-01-06T09:45:26.709Z,5272.00
2018-01-06T09:46:26.698Z,5416.00
2018-01-06T09:47:26.704Z,6004.00
2018-01-06T09:48:26.689Z,5908.00
2018-01-06T09:49:26.662Z,5480.00
2018-01-06T09:50:26.652Z,5052.00
2018-01-06T09:51:26.640Z,4872.00
2018-01-06T09:52:26.641Z,5040.00
2018-01-06T09:53:26.624Z,5296.00
2018-01-06T09:54:26.631Z,6604.00
2018-01-06T09:55:26.605Z,6976.00
2018-01-06T09:56:26.594Z,6140.00
2018-01-06T09:57:26.608Z,4836.00
2018-01-06T09:58:26.572Z,4452.00
2018-01-06T09:59:26.588Z,4456.00
2018-01-06T10:00:26.552Z,4488.00
2018-01-06T10:01:26.551Z,4632.00
2018-01-06T10:02:26.578Z,5044.00
2018-01-06T10:03:26.544Z,5492.00
2018-01-06T10:04:26.556Z,5864.00
2018-01-06T10:05:26.515Z,6236.00
2018-01-06T10:06:26.496Z,7216.00
2018-01-06T10:07:26.488Z,6768.00
2018-01-06T10:08:26.502Z,9596.00
2018-01-06T10:09:26.476Z,7060.00
2018-01-06T10:10:26.470Z,6428.00
2018-01-06T10:11:26.454Z,5816.00
2018-01-06T10:12:26.438Z,5552.00
2018-01-06T10:13:26.434Z,5492.00
2018-01-06T10:14:26.433Z,5460.00
2018-01-06T10:15:26.418Z,5200.00
2018-01-06T10:16:26.422Z,4760.00
2018-01-06T10:17:26.393Z,4480.00
2018-01-06T10:18:26.384Z,4340.00
2018-01-06T10:19:26.376Z,4436.00
2018-01-06T10:20:26.374Z,4668.00
2018-01-06T10:21:26.365Z,5024.00
2018-01-06T10:22:26.350Z,5484.00
2018-01-06T10:23:26.337Z,5808.00
2018-01-06T10:24:26.331Z,5756.00
2018-01-06T10:25:26.321Z,5388.00
2018-01-06T10:26:26.327Z,5036.00
2018-01-06T10:27:26.302Z,4808.00
2018-01-06T10:28:26.295Z,4844.00
2018-01-06T10:29:26.280Z,5260.00
2018-01-06T10:30:26.276Z,5988.00
2018-01-06T10:31:26.265Z,7908.00
2018-01-06T10:32:26.255Z,11264.00
2018-01-06T10:33:26.254Z,12464.00
2018-01-06T10:34:26.237Z,12748.00
2018-01-06T10:35:26.236Z,9076.00
2018-01-06T10:36:26.220Z,7932.00
2018-01-06T10:37:26.207Z,7672.00
2018-01-06T10:38:26.204Z,7708.00
2018-01-06T10:39:26.187Z,8560.00
2018-01-06T10:40:26.177Z,7412.00
2018-01-06T10:41:26.174Z,7164.00
2018-01-06T10:42:26.165Z,7148.00
2018-01-06T10:43:26.149Z,7164.00
2018-01-06T10:44:26.143Z,6992.00
2018-01-06T10:45:26.146Z,6612.00
2018-01-06T10:46:26.130Z,6200.00
2018-01-06T10:47:26.115Z,5844.00
2018-01-06T10:48:26.122Z,5600.00
2018-01-06T10:49:26.095Z,5624.00
2018-01-06T10:50:26.090Z,5924.00
2018-01-06T10:51:26.084Z,6168.00
2018-01-06T10:52:26.071Z,6348.00
2018-01-06T10:53:26.077Z,6636.00
2018-01-06T10:54:26.054Z,6780.00
2018-01-06T10:55:26.048Z,6964.00
2018-01-06T10:56:26.035Z,8236.00
2018-01-06T10:57:26.023Z,9172.00
2018-01-06T10:58:26.036Z,9652.00
2018-01-06T10:59:26.007Z,9112.00
2018-01-06T11:00:26.005Z,8016.00
2018-01-06T11:01:25.984Z,7108.00
2018-01-06T11:02:25.989Z,6768.00
2018-01-06T11:03:25.975Z,6732.00
2018-01-06T11:04:25.975Z,6724.00
2018-01-06T11:05:25.967Z,6616.00
2018-01-06T11:06:25.941Z,6588.00
2018-01-06T11:07:25.933Z,6628.00
2018-01-06T11:08:25.920Z,6732.00
2018-01-06T11:09:25.945Z,7024.00
2018-01-06T11:10:25.910Z,7500.00
2018-01-06T11:11:25.921Z,8000.00
2018-01-06T11:12:25.885Z,8500.00
2018-01-06T11:13:25.877Z,8700.00
2018-01-06T11:14:25.865Z,8632.00
2018-01-06T11:15:25.854Z,8296.00
2018-01-06T11:16:25.866Z,7924.00
2018-01-06T11:17:25.841Z,7648.00
2018-01-06T11:18:25.827Z,7456.00
2018-01-06T11:19:25.823Z,7180.00
2018-01-06T11:20:25.810Z,6816.00
2018-01-06T11:21:25.857Z,6460.00
2018-01-06T11:22:25.808Z,6216.00
2018-01-06T11:23:25.780Z,5920.00
2018-01-06T11:24:25.771Z,5612.00
2018-01-06T11:25:25.763Z,5324.00
2018-01-06T11:26:25.753Z,5168.00
2018-01-06T11:27:25.748Z,5176.00
2018-01-06T11:28:25.736Z,5328.00
2018-01-06T11:29:25.728Z,5608.00
2018-01-06T11:30:25.713Z,5896.00
2018-01-06T11:31:25.705Z,6144.00
2018-01-06T11:32:25.699Z,6276.00
2018-01-06T11:33:25.688Z,6240.00
2018-01-06T11:34:25.679Z,6144.00
2018-01-06T11:35:25.667Z,6088.00
2018-01-06T11:36:25.659Z,6176.00
2018-01-06T11:37:25.667Z,6316.00
2018-01-06T11:38:25.644Z,6244.00
2018-01-06T11:39:25.633Z,5920.00
2018-01-06T11:40:25.620Z,5664.00
2018-01-06T11:41:25.616Z,5612.00
2018-01-06T11:42:25.607Z,5744.00
2018-01-06T11:43:25.608Z,5956.00
2018-01-06T11:44:25.588Z,6020.00
2018-01-06T11:45:25.576Z,6044.00
2018-01-06T11:46:25.597Z,6244.00
2018-01-06T11:47:25.573Z,6136.00
2018-01-06T11:48:25.596Z,5972.00
2018-01-06T11:49:25.544Z,5784.00
2018-01-06T11:50:25.534Z,5724.00
2018-01-06T11:51:25.521Z,6012.00
2018-01-06T11:52:25.511Z,6408.00
2018-01-06T11:53:25.504Z,6524.00
2018-01-06T11:54:25.496Z,6304.00
2018-01-06T11:55:25.483Z,5980.00
2018-01-06T11:56:25.482Z,5684.00
2018-01-06T11:57:25.467Z,5460.00
2018-01-06T11:58:25.463Z,5320.00
2018-01-06T11:59:25.455Z,5232.00
2018-01-06T12:00:25.445Z,5176.00
2018-01-06T12:01:25.436Z,5308.00
2018-01-06T12:02:25.428Z,5576.00
2018-01-06T12:03:25.421Z,5816.00
2018-01-06T12:04:25.404Z,6048.00
2018-01-06T12:05:25.418Z,6344.00
2018-01-06T12:06:25.408Z,6624.00
2018-01-06T12:07:25.378Z,6824.00
2018-01-06T12:08:25.367Z,6788.00
2018-01-06T12:09:25.358Z,6528.00
2018-01-06T12:10:25.352Z,6116.00
2018-01-06T12:11:25.340Z,5708.00
2018-01-06T12:12:25.340Z,5444.00
2018-01-06T12:13:25.338Z,5336.00
2018-01-06T12:14:25.315Z,5232.00
2018-01-06T12:15:25.305Z,5040.00
2018-01-06T12:16:25.296Z,4820.00
2018-01-06T12:17:25.289Z,4732.00
2018-01-06T12:18:25.280Z,4800.00
2018-01-06T12:19:25.269Z,5000.00
2018-01-06T12:20:25.265Z,5208.00
2018-01-06T12:21:25.253Z,5364.00
2018-01-06T12:22:25.245Z,5388.00
2018-01-06T12:23:25.231Z,5312.00
2018-01-06T12:24:25.226Z,5236.00
2018-01-06T12:25:25.217Z,5172.00
2018-01-06T12:26:25.216Z,5120.00
2018-01-06T12:27:25.202Z,5064.00
2018-01-06T12:28:25.191Z,5012.00
2018-01-06T12:29:25.182Z,4856.00
2018-01-06T12:30:25.173Z,4624.00
2018-01-06T12:31:25.162Z,4568.00
2018-01-06T12:32:25.157Z,4768.00
2018-01-06T12:33:25.145Z,4984.00
2018-01-06T12:34:25.134Z,5056.00
2018-01-06T12:35:25.127Z,5132.00
2018-01-06T12:36:25.121Z,5176.00
2018-01-06T12:37:25.114Z,5108.00
2018-01-06T12:38:25.102Z,4936.00
2018-01-06T12:39:25.090Z,4744.00
2018-01-06T12:40:25.091Z,4600.00
2018-01-06T12:41:25.077Z,4552.00
2018-01-06T12:42:25.064Z,4504.00
2018-01-06T12:43:25.055Z,4448.00
2018-01-06T12:44:25.047Z,4348.00
2018-01-06T12:45:25.041Z,4172.00
2018-01-06T12:46:25.028Z,3900.00
2018-01-06T12:47:25.015Z,3592.00